sensor_id;sensor_type;location;lat;lon;timestamp;pressure;altitude;pressure_sealevel;temperature;humidity
75039;BME280;63609;49.992;14.512;2024-02-16T00:00:59;98276.03;;;6.63;70.21
75039;BME280;63609;49.992;14.512;2024-02-16T00:03:27;98282.41;;;6.60;70.11
75039;BME280;63609;49.992;14.512;2024-02-16T00:05:54;98273.34;;;6.74;68.70
75039;BME280;63609;49.992;14.512;2024-02-16T00:08:21;98275.13;;;6.85;67.82
75039;BME280;63609;49.992;14.512;2024-02-16T00:10:48;98266.84;;;6.89;67.41
75039;BME280;63609;49.992;14.512;2024-02-16T00:13:15;98262.50;;;6.77;68.46
75039;BME280;63609;49.992;14.512;2024-02-16T00:15:42;98268.28;;;6.49;69.57
75039;BME280;63609;49.992;14.512;2024-02-16T00:18:09;98269.50;;;6.33;70.14
75039;BME280;63609;49.992;14.512;2024-02-16T00:20:36;98273.09;;;6.21;70.14
75039;BME280;63609;49.992;14.512;2024-02-16T00:23:03;98282.03;;;6.43;69.75
75039;BME280;63609;49.992;14.512;2024-02-16T00:25:30;98278.41;;;6.44;69.85
75039;BME280;63609;49.992;14.512;2024-02-16T00:27:57;98280.47;;;6.51;69.64
75039;BME280;63609;49.992;14.512;2024-02-16T00:30:25;98285.41;;;6.89;68.22
75039;BME280;63609;49.992;14.512;2024-02-16T00:32:52;98281.28;;;6.96;67.25
75039;BME280;63609;49.992;14.512;2024-02-16T00:35:19;98281.28;;;6.96;67.14
75039;BME280;63609;49.992;14.512;2024-02-16T00:37:46;98289.22;;;7.08;65.30
75039;BME280;63609;49.992;14.512;2024-02-16T00:40:13;98282.47;;;7.03;64.99
75039;BME280;63609;49.992;14.512;2024-02-16T00:42:39;98286.00;;;6.93;65.02
75039;BME280;63609;49.992;14.512;2024-02-16T00:45:07;98288.41;;;6.96;64.80
75039;BME280;63609;49.992;14.512;2024-02-16T00:47:35;98280.91;;;7.01;64.17
75039;BME280;63609;49.992;14.512;2024-02-16T00:50:03;98277.66;;;6.86;64.42
75039;BME280;63609;49.992;14.512;2024-02-16T00:52:32;98286.50;;;6.76;65.25
75039;BME280;63609;49.992;14.512;2024-02-16T00:54:59;98284.91;;;6.84;64.15
75039;BME280;63609;49.992;14.512;2024-02-16T00:57:26;98278.75;;;6.84;64.14
75039;BME280;63609;49.992;14.512;2024-02-16T00:59:53;98276.97;;;6.73;63.68
75039;BME280;63609;49.992;14.512;2024-02-16T01:03:32;98279.53;;;5.84;66.34
75039;BME280;63609;49.992;14.512;2024-02-16T01:05:59;98272.13;;;6.22;64.33
75039;BME280;63609;49.992;14.512;2024-02-16T01:08:26;98275.25;;;6.05;63.74
75039;BME280;63609;49.992;14.512;2024-02-16T01:10:55;98268.50;;;6.12;63.35
75039;BME280;63609;49.992;14.512;2024-02-16T01:13:22;98264.16;;;6.00;63.79
75039;BME280;63609;49.992;14.512;2024-02-16T01:15:49;98267.19;;;6.06;63.82
75039;BME280;63609;49.992;14.512;2024-02-16T01:18:16;98255.91;;;5.81;64.23
75039;BME280;63609;49.992;14.512;2024-02-16T01:20:43;98246.75;;;5.73;65.22
75039;BME280;63609;49.992;14.512;2024-02-16T01:23:09;98244.84;;;5.87;65.21
75039;BME280;63609;49.992;14.512;2024-02-16T01:25:36;98247.84;;;5.71;65.79
75039;BME280;63609;49.992;14.512;2024-02-16T01:28:03;98240.28;;;5.54;66.25
75039;BME280;63609;49.992;14.512;2024-02-16T01:30:30;98238.47;;;5.54;66.75
75039;BME280;63609;49.992;14.512;2024-02-16T01:32:57;98228.28;;;5.26;69.18
75039;BME280;63609;49.992;14.512;2024-02-16T01:35:24;98227.03;;;5.18;69.33
75039;BME280;63609;49.992;14.512;2024-02-16T01:37:51;98226.25;;;5.29;70.68
75039;BME280;63609;49.992;14.512;2024-02-16T01:40:17;98229.06;;;5.50;69.75
75039;BME280;63609;49.992;14.512;2024-02-16T01:42:44;98236.22;;;5.61;69.34
75039;BME280;63609;49.992;14.512;2024-02-16T01:45:13;98233.75;;;5.82;68.45
75039;BME280;63609;49.992;14.512;2024-02-16T01:47:41;98238.94;;;5.72;68.65
75039;BME280;63609;49.992;14.512;2024-02-16T01:50:12;98246.69;;;6.20;67.12
75039;BME280;63609;49.992;14.512;2024-02-16T01:52:40;98252.38;;;6.49;65.19
75039;BME280;63609;49.992;14.512;2024-02-16T01:55:07;98244.69;;;6.57;64.93
75039;BME280;63609;49.992;14.512;2024-02-16T01:57:38;98236.59;;;6.58;64.59
75039;BME280;63609;49.992;14.512;2024-02-16T02:00:06;98249.63;;;6.39;64.25
75039;BME280;63609;49.992;14.512;2024-02-16T02:02:36;98249.13;;;6.34;63.96
75039;BME280;63609;49.992;14.512;2024-02-16T02:05:03;98253.22;;;6.04;66.15
75039;BME280;63609;49.992;14.512;2024-02-16T02:07:30;98261.88;;;5.95;66.57
75039;BME280;63609;49.992;14.512;2024-02-16T02:09:57;98241.16;;;6.00;65.39
75039;BME280;63609;49.992;14.512;2024-02-16T02:12:24;98245.84;;;6.08;64.16
75039;BME280;63609;49.992;14.512;2024-02-16T02:14:53;98242.72;;;5.92;63.71
75039;BME280;63609;49.992;14.512;2024-02-16T02:17:20;98253.19;;;5.58;63.96
75039;BME280;63609;49.992;14.512;2024-02-16T02:19:47;98242.69;;;4.98;68.45
75039;BME280;63609;49.992;14.512;2024-02-16T02:22:15;98234.28;;;4.80;69.11
75039;BME280;63609;49.992;14.512;2024-02-16T02:24:43;98242.59;;;4.86;68.98
75039;BME280;63609;49.992;14.512;2024-02-16T02:27:12;98236.13;;;4.67;69.30
75039;BME280;63609;49.992;14.512;2024-02-16T02:29:40;98239.09;;;4.62;71.05
75039;BME280;63609;49.992;14.512;2024-02-16T02:32:08;98236.63;;;4.72;71.13
75039;BME280;63609;49.992;14.512;2024-02-16T02:34:35;98229.94;;;4.79;71.42
75039;BME280;63609;49.992;14.512;2024-02-16T02:37:03;98227.69;;;4.85;71.27
75039;BME280;63609;49.992;14.512;2024-02-16T02:39:31;98216.78;;;5.14;68.82
75039;BME280;63609;49.992;14.512;2024-02-16T02:41:58;98210.38;;;5.05;69.26
75039;BME280;63609;49.992;14.512;2024-02-16T02:44:25;98215.31;;;5.10;68.23
75039;BME280;63609;49.992;14.512;2024-02-16T02:46:52;98207.50;;;5.43;66.45
75039;BME280;63609;49.992;14.512;2024-02-16T02:49:19;98210.13;;;5.32;66.74
75039;BME280;63609;49.992;14.512;2024-02-16T02:51:46;98200.00;;;5.26;67.30
75039;BME280;63609;49.992;14.512;2024-02-16T02:54:13;98210.31;;;5.53;65.94
75039;BME280;63609;49.992;14.512;2024-02-16T02:56:40;98204.63;;;5.82;63.95
75039;BME280;63609;49.992;14.512;2024-02-16T02:59:06;98209.91;;;5.82;63.76
75039;BME280;63609;49.992;14.512;2024-02-16T03:01:35;98212.94;;;5.88;63.04
75039;BME280;63609;49.992;14.512;2024-02-16T03:04:03;98212.28;;;5.62;63.69
75039;BME280;63609;49.992;14.512;2024-02-16T03:06:30;98214.63;;;5.78;63.51
75039;BME280;63609;49.992;14.512;2024-02-16T03:08:57;98209.06;;;5.81;62.95
75039;BME280;63609;49.992;14.512;2024-02-16T03:11:24;98217.81;;;5.59;62.78
75039;BME280;63609;49.992;14.512;2024-02-16T03:13:50;98213.50;;;5.34;62.89
75039;BME280;63609;49.992;14.512;2024-02-16T03:16:17;98210.75;;;5.36;63.31
75039;BME280;63609;49.992;14.512;2024-02-16T03:18:44;98214.63;;;5.43;63.45
75039;BME280;63609;49.992;14.512;2024-02-16T03:21:14;98206.78;;;5.41;63.06
75039;BME280;63609;49.992;14.512;2024-02-16T03:23:44;98209.06;;;5.35;63.57
75039;BME280;63609;49.992;14.512;2024-02-16T03:26:15;98202.94;;;5.10;64.75
75039;BME280;63609;49.992;14.512;2024-02-16T03:28:47;98206.06;;;5.15;64.03
75039;BME280;63609;49.992;14.512;2024-02-16T03:31:21;98204.53;;;5.24;63.57
75039;BME280;63609;49.992;14.512;2024-02-16T03:33:50;98209.84;;;5.24;63.94
75039;BME280;63609;49.992;14.512;2024-02-16T03:36:19;98211.09;;;5.07;63.90
75039;BME280;63609;49.992;14.512;2024-02-16T03:38:47;98218.31;;;5.05;63.68
75039;BME280;63609;49.992;14.512;2024-02-16T03:41:20;98211.22;;;5.06;62.73
75039;BME280;63609;49.992;14.512;2024-02-16T03:43:47;98212.00;;;4.71;62.67
75039;BME280;63609;49.992;14.512;2024-02-16T03:46:14;98216.31;;;4.72;63.51
75039;BME280;63609;49.992;14.512;2024-02-16T03:48:41;98204.56;;;4.76;62.55
75039;BME280;63609;49.992;14.512;2024-02-16T03:51:08;98209.34;;;4.71;63.02
75039;BME280;63609;49.992;14.512;2024-02-16T03:53:35;98205.75;;;4.72;63.08
75039;BME280;63609;49.992;14.512;2024-02-16T03:56:01;98204.28;;;4.68;63.75
75039;BME280;63609;49.992;14.512;2024-02-16T03:58:28;98208.16;;;4.39;63.77
75039;BME280;63609;49.992;14.512;2024-02-16T04:00:55;98211.50;;;4.53;62.24
75039;BME280;63609;49.992;14.512;2024-02-16T04:03:22;98202.78;;;4.40;61.84
75039;BME280;63609;49.992;14.512;2024-02-16T04:05:49;98215.59;;;4.21;63.22
75039;BME280;63609;49.992;14.512;2024-02-16T04:08:16;98208.41;;;4.23;63.21
75039;BME280;63609;49.992;14.512;2024-02-16T04:10:44;98209.78;;;4.16;63.36
75039;BME280;63609;49.992;14.512;2024-02-16T04:13:11;98210.84;;;4.13;63.27
75039;BME280;63609;49.992;14.512;2024-02-16T04:15:38;98210.97;;;4.12;63.12
75039;BME280;63609;49.992;14.512;2024-02-16T04:18:05;98219.00;;;3.98;63.29
75039;BME280;63609;49.992;14.512;2024-02-16T04:20:35;98212.66;;;3.87;64.94
75039;BME280;63609;49.992;14.512;2024-02-16T04:23:03;98216.34;;;3.85;66.11
75039;BME280;63609;49.992;14.512;2024-02-16T04:25:30;98207.25;;;4.14;65.73
75039;BME280;63609;49.992;14.512;2024-02-16T04:27:56;98211.78;;;4.25;65.75
75039;BME280;63609;49.992;14.512;2024-02-16T04:30:23;98210.41;;;4.32;65.61
75039;BME280;63609;49.992;14.512;2024-02-16T04:32:51;98206.22;;;4.04;64.91
75039;BME280;63609;49.992;14.512;2024-02-16T04:35:19;98221.75;;;3.83;65.79
75039;BME280;63609;49.992;14.512;2024-02-16T04:37:46;98209.78;;;3.90;64.00
75039;BME280;63609;49.992;14.512;2024-02-16T04:40:12;98216.97;;;3.88;64.36
75039;BME280;63609;49.992;14.512;2024-02-16T04:42:39;98222.38;;;4.00;63.70
75039;BME280;63609;49.992;14.512;2024-02-16T04:45:12;98222.69;;;3.95;63.71
75039;BME280;63609;49.992;14.512;2024-02-16T04:47:41;98221.53;;;3.99;63.62
75039;BME280;63609;49.992;14.512;2024-02-16T04:50:08;98226.81;;;3.99;64.40
75039;BME280;63609;49.992;14.512;2024-02-16T04:52:37;98233.66;;;3.89;63.99
75039;BME280;63609;49.992;14.512;2024-02-16T04:55:07;98237.59;;;3.96;63.38
75039;BME280;63609;49.992;14.512;2024-02-16T04:57:34;98234.19;;;3.94;63.89
75039;BME280;63609;49.992;14.512;2024-02-16T05:00:02;98234.41;;;3.91;63.00
75039;BME280;63609;49.992;14.512;2024-02-16T05:02:30;98237.13;;;3.77;63.76
75039;BME280;63609;49.992;14.512;2024-02-16T05:04:56;98238.94;;;3.76;63.58
75039;BME280;63609;49.992;14.512;2024-02-16T05:07:28;98233.44;;;3.67;63.21
75039;BME280;63609;49.992;14.512;2024-02-16T05:09:55;98235.84;;;3.82;63.13
75039;BME280;63609;49.992;14.512;2024-02-16T05:12:25;98238.53;;;3.95;63.23
75039;BME280;63609;49.992;14.512;2024-02-16T05:14:53;98235.78;;;3.84;63.44
75039;BME280;63609;49.992;14.512;2024-02-16T05:17:20;98229.22;;;3.77;64.11
75039;BME280;63609;49.992;14.512;2024-02-16T05:19:49;98224.78;;;3.77;64.70
75039;BME280;63609;49.992;14.512;2024-02-16T05:22:16;98222.34;;;3.74;64.51
75039;BME280;63609;49.992;14.512;2024-02-16T05:24:48;98219.78;;;3.60;65.43
75039;BME280;63609;49.992;14.512;2024-02-16T05:27:15;98228.16;;;3.67;66.18
75039;BME280;63609;49.992;14.512;2024-02-16T05:29:42;98223.72;;;3.67;65.28
75039;BME280;63609;49.992;14.512;2024-02-16T05:32:09;98216.28;;;3.59;66.00
75039;BME280;63609;49.992;14.512;2024-02-16T05:34:37;98213.28;;;3.26;67.34
75039;BME280;63609;49.992;14.512;2024-02-16T05:37:05;98210.16;;;3.34;67.00
75039;BME280;63609;49.992;14.512;2024-02-16T05:39:36;98210.63;;;3.91;66.45
75039;BME280;63609;49.992;14.512;2024-02-16T05:42:10;98208.63;;;4.07;65.14
75039;BME280;63609;49.992;14.512;2024-02-16T05:44:37;98207.47;;;3.86;65.32
75039;BME280;63609;49.992;14.512;2024-02-16T05:47:05;98205.25;;;3.92;64.88
75039;BME280;63609;49.992;14.512;2024-02-16T05:49:32;98207.59;;;3.84;65.30
75039;BME280;63609;49.992;14.512;2024-02-16T05:51:59;98208.44;;;3.98;64.60
75039;BME280;63609;49.992;14.512;2024-02-16T05:54:45;98215.72;;;3.94;64.57
75039;BME280;63609;49.992;14.512;2024-02-16T05:57:14;98225.53;;;3.92;64.08
75039;BME280;63609;49.992;14.512;2024-02-16T05:59:41;98232.09;;;3.86;64.93
75039;BME280;63609;49.992;14.512;2024-02-16T06:02:08;98221.75;;;3.83;64.52
75039;BME280;63609;49.992;14.512;2024-02-16T06:04:39;98224.34;;;3.71;65.22
75039;BME280;63609;49.992;14.512;2024-02-16T06:07:06;98229.56;;;3.85;64.58
75039;BME280;63609;49.992;14.512;2024-02-16T06:09:34;98241.38;;;3.92;64.80
75039;BME280;63609;49.992;14.512;2024-02-16T06:12:03;98247.63;;;3.91;65.86
75039;BME280;63609;49.992;14.512;2024-02-16T06:14:31;98251.00;;;4.06;64.78
75039;BME280;63609;49.992;14.512;2024-02-16T06:16:58;98254.50;;;4.06;64.60
75039;BME280;63609;49.992;14.512;2024-02-16T06:19:26;98259.47;;;3.98;64.91
75039;BME280;63609;49.992;14.512;2024-02-16T06:21:54;98262.50;;;3.92;64.94
75039;BME280;63609;49.992;14.512;2024-02-16T06:24:22;98268.31;;;3.84;65.35
75039;BME280;63609;49.992;14.512;2024-02-16T06:26:50;98266.75;;;4.07;65.11
75039;BME280;63609;49.992;14.512;2024-02-16T06:29:23;98280.28;;;4.15;65.75
75039;BME280;63609;49.992;14.512;2024-02-16T06:31:50;98280.72;;;4.09;65.76
75039;BME280;63609;49.992;14.512;2024-02-16T06:34:18;98279.00;;;4.21;65.83
75039;BME280;63609;49.992;14.512;2024-02-16T06:36:46;98270.97;;;4.10;66.18
75039;BME280;63609;49.992;14.512;2024-02-16T06:39:14;98281.31;;;4.26;65.99
75039;BME280;63609;49.992;14.512;2024-02-16T06:41:45;98273.72;;;4.34;65.70
75039;BME280;63609;49.992;14.512;2024-02-16T06:44:12;98277.75;;;4.39;65.80
75039;BME280;63609;49.992;14.512;2024-02-16T06:46:40;98279.63;;;4.24;66.50
75039;BME280;63609;49.992;14.512;2024-02-16T06:49:07;98274.88;;;4.17;66.67
75039;BME280;63609;49.992;14.512;2024-02-16T06:51:34;98282.50;;;4.34;66.36
75039;BME280;63609;49.992;14.512;2024-02-16T06:54:01;98287.56;;;4.37;66.29
75039;BME280;63609;49.992;14.512;2024-02-16T06:56:29;98283.56;;;4.19;67.74
75039;BME280;63609;49.992;14.512;2024-02-16T06:58:56;98294.97;;;4.32;67.03
75039;BME280;63609;49.992;14.512;2024-02-16T07:01:23;98292.00;;;4.49;67.32
75039;BME280;63609;49.992;14.512;2024-02-16T07:03:50;98289.59;;;4.34;68.26
75039;BME280;63609;49.992;14.512;2024-02-16T07:06:17;98293.16;;;4.45;67.33
75039;BME280;63609;49.992;14.512;2024-02-16T07:08:44;98296.84;;;4.68;66.61
75039;BME280;63609;49.992;14.512;2024-02-16T07:11:11;98288.41;;;5.00;65.62
75039;BME280;63609;49.992;14.512;2024-02-16T07:13:39;98279.19;;;4.93;66.19
75039;BME280;63609;49.992;14.512;2024-02-16T07:16:06;98287.28;;;4.78;67.02
75039;BME280;63609;49.992;14.512;2024-02-16T07:18:33;98292.97;;;4.85;67.21
75039;BME280;63609;49.992;14.512;2024-02-16T07:21:01;98304.00;;;5.15;66.35
75039;BME280;63609;49.992;14.512;2024-02-16T07:23:29;98305.09;;;5.37;66.71
75039;BME280;63609;49.992;14.512;2024-02-16T07:25:56;98308.69;;;5.60;65.59
75039;BME280;63609;49.992;14.512;2024-02-16T07:28:25;98306.00;;;5.72;65.09
75039;BME280;63609;49.992;14.512;2024-02-16T07:30:55;98303.06;;;5.64;64.77
75039;BME280;63609;49.992;14.512;2024-02-16T07:33:23;98304.00;;;5.63;65.33
75039;BME280;63609;49.992;14.512;2024-02-16T07:35:54;98300.50;;;5.15;67.04
75039;BME280;63609;49.992;14.512;2024-02-16T07:38:23;98300.91;;;4.98;67.79
75039;BME280;63609;49.992;14.512;2024-02-16T07:40:50;98304.00;;;5.15;67.48
75039;BME280;63609;49.992;14.512;2024-02-16T07:43:17;98301.06;;;5.55;66.76
75039;BME280;63609;49.992;14.512;2024-02-16T07:45:46;98313.75;;;5.87;65.56
75039;BME280;63609;49.992;14.512;2024-02-16T07:48:13;98318.06;;;5.88;65.53
75039;BME280;63609;49.992;14.512;2024-02-16T07:50:40;98323.00;;;5.81;66.50
75039;BME280;63609;49.992;14.512;2024-02-16T07:53:08;98320.91;;;6.08;65.74
75039;BME280;63609;49.992;14.512;2024-02-16T07:55:38;98309.38;;;6.21;65.01
75039;BME280;63609;49.992;14.512;2024-02-16T07:58:05;98320.97;;;6.31;65.18
75039;BME280;63609;49.992;14.512;2024-02-16T08:00:32;98310.31;;;6.20;65.75
75039;BME280;63609;49.992;14.512;2024-02-16T08:02:59;98314.31;;;5.79;67.21
75039;BME280;63609;49.992;14.512;2024-02-16T08:05:26;98302.25;;;5.51;69.32
75039;BME280;63609;49.992;14.512;2024-02-16T08:07:54;98299.59;;;5.03;71.08
75039;BME280;63609;49.992;14.512;2024-02-16T08:10:22;98301.56;;;4.76;72.25
75039;BME280;63609;49.992;14.512;2024-02-16T08:12:49;98292.03;;;4.86;72.55
75039;BME280;63609;49.992;14.512;2024-02-16T08:15:16;98290.66;;;5.17;71.88
75039;BME280;63609;49.992;14.512;2024-02-16T08:17:50;98298.88;;;5.01;72.09
75039;BME280;63609;49.992;14.512;2024-02-16T08:20:21;98298.25;;;4.98;72.45
75039;BME280;63609;49.992;14.512;2024-02-16T08:22:48;98293.91;;;4.97;72.29
75039;BME280;63609;49.992;14.512;2024-02-16T08:25:15;98285.31;;;4.69;73.28
75039;BME280;63609;49.992;14.512;2024-02-16T08:27:42;98292.75;;;4.39;74.50
75039;BME280;63609;49.992;14.512;2024-02-16T08:30:09;98287.63;;;4.74;75.04
75039;BME280;63609;49.992;14.512;2024-02-16T08:32:36;98284.75;;;5.13;72.93
75039;BME280;63609;49.992;14.512;2024-02-16T08:35:03;98282.38;;;5.45;71.66
75039;BME280;63609;49.992;14.512;2024-02-16T08:37:31;98280.66;;;5.33;71.94
75039;BME280;63609;49.992;14.512;2024-02-16T08:39:58;98293.91;;;5.68;70.37
75039;BME280;63609;49.992;14.512;2024-02-16T08:42:25;98296.03;;;6.56;69.94
75039;BME280;63609;49.992;14.512;2024-02-16T08:44:52;98302.91;;;6.36;69.01
75039;BME280;63609;49.992;14.512;2024-02-16T08:47:19;98295.25;;;6.09;69.09
75039;BME280;63609;49.992;14.512;2024-02-16T08:49:46;98295.69;;;6.60;69.27
75039;BME280;63609;49.992;14.512;2024-02-16T08:52:13;98301.78;;;6.16;68.17
75039;BME280;63609;49.992;14.512;2024-02-16T08:54:42;98304.81;;;6.34;68.46
75039;BME280;63609;49.992;14.512;2024-02-16T08:57:10;98302.38;;;7.09;67.74
75039;BME280;63609;49.992;14.512;2024-02-16T08:59:37;98304.22;;;6.75;69.69
75039;BME280;63609;49.992;14.512;2024-02-16T09:02:04;98296.84;;;7.01;69.18
75039;BME280;63609;49.992;14.512;2024-02-16T09:04:31;98297.72;;;6.90;68.62
75039;BME280;63609;49.992;14.512;2024-02-16T09:06:59;98302.66;;;6.72;69.26
75039;BME280;63609;49.992;14.512;2024-02-16T09:09:26;98296.38;;;6.96;70.10
75039;BME280;63609;49.992;14.512;2024-02-16T09:11:53;98298.06;;;6.41;70.49
75039;BME280;63609;49.992;14.512;2024-02-16T09:14:20;98306.03;;;6.75;70.63
75039;BME280;63609;49.992;14.512;2024-02-16T09:16:50;98300.94;;;6.83;67.41
75039;BME280;63609;49.992;14.512;2024-02-16T09:19:18;98303.50;;;6.95;67.15
75039;BME280;63609;49.992;14.512;2024-02-16T09:21:49;98302.03;;;7.02;66.55
75039;BME280;63609;49.992;14.512;2024-02-16T09:24:24;98297.72;;;7.45;65.39
75039;BME280;63609;49.992;14.512;2024-02-16T09:26:57;98305.03;;;7.84;63.65
75039;BME280;63609;49.992;14.512;2024-02-16T09:29:28;98311.03;;;7.98;65.02
75039;BME280;63609;49.992;14.512;2024-02-16T09:31:55;98311.75;;;8.20;61.42
75039;BME280;63609;49.992;14.512;2024-02-16T09:34:22;98307.94;;;8.95;59.88
75039;BME280;63609;49.992;14.512;2024-02-16T09:36:49;98319.56;;;8.84;60.25
75039;BME280;63609;49.992;14.512;2024-02-16T09:39:17;98317.41;;;8.27;61.30
75039;BME280;63609;49.992;14.512;2024-02-16T09:41:50;98317.03;;;7.58;62.99
75039;BME280;63609;49.992;14.512;2024-02-16T09:44:17;98320.91;;;7.43;65.10
75039;BME280;63609;49.992;14.512;2024-02-16T09:46:44;98321.56;;;7.24;65.15
75039;BME280;63609;49.992;14.512;2024-02-16T09:49:11;98313.72;;;7.22;65.73
75039;BME280;63609;49.992;14.512;2024-02-16T09:51:38;98323.03;;;6.83;65.42
75039;BME280;63609;49.992;14.512;2024-02-16T09:54:05;98322.91;;;7.61;64.43
75039;BME280;63609;49.992;14.512;2024-02-16T09:56:34;98318.97;;;7.45;64.74
75039;BME280;63609;49.992;14.512;2024-02-16T09:59:01;98311.13;;;7.75;65.14
75039;BME280;63609;49.992;14.512;2024-02-16T10:01:31;98319.16;;;7.64;65.07
75039;BME280;63609;49.992;14.512;2024-02-16T10:04:08;98309.09;;;7.36;64.92
75039;BME280;63609;49.992;14.512;2024-02-16T10:06:46;98311.00;;;7.45;65.38
75039;BME280;63609;49.992;14.512;2024-02-16T10:09:24;98314.94;;;7.93;64.52
75039;BME280;63609;49.992;14.512;2024-02-16T10:11:51;98314.25;;;7.48;63.97
75039;BME280;63609;49.992;14.512;2024-02-16T10:14:18;98316.94;;;8.01;64.00
75039;BME280;63609;49.992;14.512;2024-02-16T10:16:47;98310.13;;;8.29;62.28
75039;BME280;63609;49.992;14.512;2024-02-16T10:19:17;98303.44;;;8.65;62.66
75039;BME280;63609;49.992;14.512;2024-02-16T10:21:44;98300.94;;;8.64;60.59
75039;BME280;63609;49.992;14.512;2024-02-16T10:24:12;98299.47;;;9.20;60.30
75039;BME280;63609;49.992;14.512;2024-02-16T10:26:42;98290.69;;;8.89;58.53
75039;BME280;63609;49.992;14.512;2024-02-16T10:29:10;98298.78;;;9.47;59.69
75039;BME280;63609;49.992;14.512;2024-02-16T10:31:38;98300.97;;;9.04;60.04
75039;BME280;63609;49.992;14.512;2024-02-16T10:34:05;98303.13;;;9.19;58.48
75039;BME280;63609;49.992;14.512;2024-02-16T10:36:35;98300.94;;;10.02;57.71
75039;BME280;63609;49.992;14.512;2024-02-16T10:39:04;98296.00;;;10.26;55.82
75039;BME280;63609;49.992;14.512;2024-02-16T10:41:37;98287.78;;;10.57;56.39
75039;BME280;63609;49.992;14.512;2024-02-16T10:44:04;98292.09;;;10.21;54.96
75039;BME280;63609;49.992;14.512;2024-02-16T10:46:33;98290.16;;;9.94;54.63
75039;BME280;63609;49.992;14.512;2024-02-16T10:49:01;98289.53;;;9.42;57.08
75039;BME280;63609;49.992;14.512;2024-02-16T10:51:49;98285.97;;;9.03;59.29
75039;BME280;63609;49.992;14.512;2024-02-16T10:54:22;98277.59;;;9.17;58.27
75039;BME280;63609;49.992;14.512;2024-02-16T10:56:53;98279.47;;;9.65;57.77
75039;BME280;63609;49.992;14.512;2024-02-16T10:59:20;98266.81;;;9.18;58.17
75039;BME280;63609;49.992;14.512;2024-02-16T11:01:47;98266.34;;;9.13;58.51
75039;BME280;63609;49.992;14.512;2024-02-16T11:04:17;98261.63;;;9.46;59.17
75039;BME280;63609;49.992;14.512;2024-02-16T11:06:48;98262.88;;;9.42;58.72
75039;BME280;63609;49.992;14.512;2024-02-16T11:11:53;98267.00;;;9.94;58.53
75039;BME280;63609;49.992;14.512;2024-02-16T11:14:22;98259.06;;;10.12;58.08
75039;BME280;63609;49.992;14.512;2024-02-16T11:16:55;98260.50;;;10.06;57.48
75039;BME280;63609;49.992;14.512;2024-02-16T11:19:23;98261.47;;;10.62;56.83
75039;BME280;63609;49.992;14.512;2024-02-16T11:21:57;98259.84;;;11.16;55.12
75039;BME280;63609;49.992;14.512;2024-02-16T11:24:34;98263.94;;;10.73;55.68
75039;BME280;63609;49.992;14.512;2024-02-16T11:27:02;98258.16;;;11.86;53.11
75039;BME280;63609;49.992;14.512;2024-02-16T11:29:32;98254.59;;;11.77;51.98
75039;BME280;63609;49.992;14.512;2024-02-16T11:32:01;98247.25;;;12.05;50.71
75039;BME280;63609;49.992;14.512;2024-02-16T11:34:29;98246.50;;;12.13;50.08
75039;BME280;63609;49.992;14.512;2024-02-16T11:36:57;98239.03;;;12.76;49.50
75039;BME280;63609;49.992;14.512;2024-02-16T11:39:25;98239.13;;;11.89;51.53
75039;BME280;63609;49.992;14.512;2024-02-16T11:42:00;98240.44;;;13.47;48.37
75039;BME280;63609;49.992;14.512;2024-02-16T11:44:32;98241.72;;;13.27;47.76
75039;BME280;63609;49.992;14.512;2024-02-16T11:47:00;98249.66;;;12.34;50.02
75039;BME280;63609;49.992;14.512;2024-02-16T11:49:29;98235.56;;;12.06;51.08
75039;BME280;63609;49.992;14.512;2024-02-16T11:51:59;98230.53;;;12.89;50.21
75039;BME280;63609;49.992;14.512;2024-02-16T11:54:26;98236.53;;;12.49;51.99
75039;BME280;63609;49.992;14.512;2024-02-16T11:56:53;98224.84;;;11.62;52.47
75039;BME280;63609;49.992;14.512;2024-02-16T11:59:20;98221.00;;;12.26;50.56
75039;BME280;63609;49.992;14.512;2024-02-16T12:01:56;98221.00;;;13.45;47.33
75039;BME280;63609;49.992;14.512;2024-02-16T12:04:27;98216.63;;;13.68;46.12
75039;BME280;63609;49.992;14.512;2024-02-16T12:06:59;98220.63;;;14.37;45.33
75039;BME280;63609;49.992;14.512;2024-02-16T12:09:31;98224.41;;;14.59;43.76
75039;BME280;63609;49.992;14.512;2024-02-16T12:12:02;98218.09;;;14.36;44.48
75039;BME280;63609;49.992;14.512;2024-02-16T12:14:30;98224.16;;;14.85;43.42
75039;BME280;63609;49.992;14.512;2024-02-16T12:16:57;98224.03;;;14.78;41.88
75039;BME280;63609;49.992;14.512;2024-02-16T12:19:25;98218.78;;;14.30;42.29
75039;BME280;63609;49.992;14.512;2024-02-16T12:21:54;98221.66;;;14.20;44.95
75039;BME280;63609;49.992;14.512;2024-02-16T12:24:24;98226.81;;;14.46;44.02
75039;BME280;63609;49.992;14.512;2024-02-16T12:26:51;98220.81;;;13.87;45.18
75039;BME280;63609;49.992;14.512;2024-02-16T12:29:18;98222.66;;;13.95;45.89
75039;BME280;63609;49.992;14.512;2024-02-16T12:31:45;98225.50;;;12.52;47.75
75039;BME280;63609;49.992;14.512;2024-02-16T12:34:14;98225.19;;;13.05;47.13
75039;BME280;63609;49.992;14.512;2024-02-16T12:36:42;98214.13;;;13.42;45.90
75039;BME280;63609;49.992;14.512;2024-02-16T12:39:15;98221.81;;;14.10;45.77
75039;BME280;63609;49.992;14.512;2024-02-16T12:41:43;98214.16;;;14.63;45.13
75039;BME280;63609;49.992;14.512;2024-02-16T12:44:10;98214.63;;;14.74;44.41
75039;BME280;63609;49.992;14.512;2024-02-16T12:46:37;98208.75;;;13.59;44.91
75039;BME280;63609;49.992;14.512;2024-02-16T12:49:06;98210.94;;;14.12;43.79
75039;BME280;63609;49.992;14.512;2024-02-16T12:51:34;98203.94;;;14.58;43.76
75039;BME280;63609;49.992;14.512;2024-02-16T12:54:01;98211.66;;;15.08;43.10
75039;BME280;63609;49.992;14.512;2024-02-16T12:56:31;98211.91;;;15.22;42.94
75039;BME280;63609;49.992;14.512;2024-02-16T12:58:58;98208.91;;;15.17;41.92
75039;BME280;63609;49.992;14.512;2024-02-16T13:01:27;98214.50;;;14.99;41.97
75039;BME280;63609;49.992;14.512;2024-02-16T13:03:54;98210.84;;;14.92;42.83
75039;BME280;63609;49.992;14.512;2024-02-16T13:06:21;98218.41;;;15.04;43.34